Time;durP1;ratioP1;P1;durP2;ratioP2;P2;SDS_P1;SDS_P2;PMS_P1;PMS_P2;Temp;Humidity;BMP_temperature;BMP_pressure;BME280_temperature;BME280_humidity;BME280_pressure;Samples;Min_cycle;Max_cycle;Signal;HPM_P1;HPM_P2
2022/03/12 00:00:00;;;;;;;12.10;10.40;;;;;;;9.08;nan;101260.56;5111498;28;20111;-61
2022/03/12 00:02:25;;;;;;;12.85;10.25;;;;;;;9.10;nan;101263.22;5111177;28;20051;-62
2022/03/12 00:04:50;;;;;;;12.10;10.80;;;;;;;9.09;nan;101262.34;5111701;28;20024;-60
2022/03/12 00:07:16;;;;;;;15.07;10.93;;;;;;;9.07;nan;101261.38;5111199;28;20475;-60
2022/03/12 00:09:43;;;;;;;14.32;11.27;;;;;;;9.05;nan;101255.25;5111137;28;20019;-59
2022/03/12 00:12:11;;;;;;;12.23;10.98;;;;;;;9.05;nan;101260.41;5111148;28;20012;-62
2022/03/12 00:14:37;;;;;;;11.73;10.35;;;;;;;9.06;nan;101257.03;5111079;28;20027;-61
2022/03/12 00:17:03;;;;;;;14.13;11.68;;;;;;;9.08;nan;101263.16;5110864;28;20364;-61
2022/03/12 00:19:30;;;;;;;14.23;11.25;;;;;;;9.06;nan;101264.78;5111437;28;20119;-61
2022/03/12 00:21:57;;;;;;;13.80;10.85;;;;;;;9.05;nan;101270.75;5110890;28;20020;-61
2022/03/12 00:24:22;;;;;;;11.85;10.13;;;;;;;9.04;nan;101269.00;5110585;28;20433;-61
2022/03/12 00:26:50;;;;;;;12.13;10.50;;;;;;;9.03;nan;101272.38;5110601;28;20088;-62
2022/03/12 00:29:16;;;;;;;13.23;10.43;;;;;;;9.05;nan;101275.06;5110798;28;20024;-61
2022/03/12 00:31:43;;;;;;;12.75;9.82;;;;;;;9.04;nan;101274.16;5111035;28;20019;-61
2022/03/12 00:34:09;;;;;;;12.27;10.40;;;;;;;9.04;nan;101284.50;5110763;28;20034;-61
2022/03/12 00:36:34;;;;;;;16.98;11.45;;;;;;;9.04;nan;101278.44;5110425;28;20023;-62
2022/03/12 00:39:00;;;;;;;12.68;11.25;;;;;;;9.02;nan;101280.97;5109867;28;20408;-62
2022/03/12 00:41:26;;;;;;;13.52;10.77;;;;;;;9.02;nan;101291.31;5110613;28;20024;-62
2022/03/12 00:43:52;;;;;;;12.63;10.75;;;;;;;9.01;nan;101285.25;5110690;28;20027;-61
2022/03/12 00:46:19;;;;;;;12.50;10.50;;;;;;;9.01;nan;101289.56;5110655;28;20031;-61
2022/03/12 00:48:44;;;;;;;14.18;10.77;;;;;;;8.99;nan;101294.63;5110541;28;20065;-59
2022/03/12 00:51:10;;;;;;;12.38;10.57;;;;;;;8.97;nan;101291.13;5110391;28;20023;-62
2022/03/12 00:53:37;;;;;;;15.38;11.23;;;;;;;8.95;nan;101294.44;5110376;28;20024;-60
2022/03/12 00:56:03;;;;;;;16.33;11.07;;;;;;;8.94;nan;101284.91;5110378;28;20028;-60
2022/03/12 00:58:28;;;;;;;13.63;10.60;;;;;;;8.93;nan;101281.44;5110396;28;20463;-60
2022/03/12 01:00:54;;;;;;;14.75;11.50;;;;;;;8.95;nan;101289.25;5110107;28;20028;-61
2022/03/12 01:03:19;;;;;;;15.88;10.65;;;;;;;8.93;nan;101286.59;5109930;28;20439;-61
2022/03/12 01:05:48;;;;;;;15.35;10.52;;;;;;;8.93;nan;101286.59;5092101;28;20027;-61
2022/03/12 01:08:14;;;;;;;13.43;11.75;;;;;;;8.93;nan;101291.78;5110174;28;20023;-59
2022/03/12 01:10:40;;;;;;;12.82;10.80;;;;;;;8.93;nan;101294.34;5110492;28;20020;-60
2022/03/12 01:13:05;;;;;;;13.98;11.18;;;;;;;8.95;nan;101297.00;5110199;28;20372;-62
2022/03/12 01:15:32;;;;;;;16.60;10.93;;;;;;;8.97;nan;101297.97;5110624;28;20030;-61
2022/03/12 01:17:58;;;;;;;13.60;11.35;;;;;;;8.95;nan;101300.50;5110094;28;20027;-61
2022/03/12 01:20:23;;;;;;;12.68;11.23;;;;;;;8.95;nan;101294.44;5110455;28;20107;-60
2022/03/12 01:22:48;;;;;;;15.52;11.07;;;;;;;8.94;nan;101303.00;5109966;28;20026;-61
2022/03/12 01:25:14;;;;;;;13.63;11.15;;;;;;;8.94;nan;101296.13;5110389;28;20023;-61
2022/03/12 01:27:39;;;;;;;12.73;10.68;;;;;;;8.96;nan;101299.66;5110410;28;20051;-61
2022/03/12 01:30:07;;;;;;;14.02;11.35;;;;;;;8.99;nan;101304.97;5110143;28;20024;-61
2022/03/12 01:32:33;;;;;;;16.50;10.80;;;;;;;8.95;nan;101304.75;5109907;28;20036;-61
2022/03/12 01:34:58;;;;;;;12.98;11.65;;;;;;;8.94;nan;101308.19;5110125;28;20058;-61
2022/03/12 01:37:24;;;;;;;22.27;12.13;;;;;;;8.93;nan;101308.97;5110506;28;20116;-61
2022/03/12 01:39:49;;;;;;;14.77;11.48;;;;;;;8.92;nan;101312.38;5109903;28;20483;-62
2022/03/12 01:42:16;;;;;;;12.85;11.55;;;;;;;8.88;nan;101314.84;5109897;28;20463;-61
2022/03/12 01:44:43;;;;;;;15.32;11.52;;;;;;;8.86;nan;101315.56;5110305;28;20433;-61
2022/03/12 01:47:10;;;;;;;12.93;11.60;;;;;;;8.87;nan;101319.91;5109932;28;20074;-60
2022/03/12 01:49:37;;;;;;;13.85;11.02;;;;;;;8.83;nan;101316.28;5111085;28;20020;-61
2022/03/12 01:52:04;;;;;;;11.65;10.45;;;;;;;8.81;nan;101317.94;5113945;28;20038;-61
2022/03/12 01:54:30;;;;;;;14.50;12.02;;;;;;;8.79;nan;101314.41;5114106;28;20055;-61
2022/03/12 01:56:58;;;;;;;15.55;11.60;;;;;;;8.77;nan;101319.50;5113934;28;20020;-60
2022/03/12 01:59:23;;;;;;;13.95;11.75;;;;;;;8.75;nan;101326.28;5114177;28;20066;-61
2022/03/12 02:01:51;;;;;;;12.80;11.43;;;;;;;8.73;nan;101319.25;5113708;28;20067;-61
2022/03/12 02:04:17;;;;;;;13.57;11.35;;;;;;;8.68;nan;101318.16;5113911;28;20491;-61
2022/03/12 02:06:45;;;;;;;13.63;11.68;;;;;;;8.63;nan;101316.22;5113519;28;20019;-61
2022/03/12 02:09:15;;;;;;;14.32;11.45;;;;;;;8.59;nan;101304.00;5113321;28;20031;-61
2022/03/12 02:11:43;;;;;;;14.48;12.15;;;;;;;8.56;nan;101321.94;5113645;28;20020;-61
2022/03/12 02:14:15;;;;;;;12.57;10.85;;;;;;;8.52;nan;101317.41;5113364;28;20028;-61
2022/03/12 02:16:45;;;;;;;17.60;12.35;;;;;;;8.50;nan;101306.09;5113213;28;20447;-61
2022/03/12 02:19:10;;;;;;;14.27;11.20;;;;;;;8.49;nan;101314.69;5113382;28;20498;-61
2022/03/12 02:21:41;;;;;;;15.25;11.52;;;;;;;8.44;nan;101306.69;5113466;28;20277;-61
2022/03/12 02:24:11;;;;;;;13.23;11.67;;;;;;;8.43;nan;101315.25;5113513;28;20076;-61
2022/03/12 02:26:38;;;;;;;12.50;11.20;;;;;;;8.43;nan;101316.97;5113263;28;20273;-61
2022/03/12 02:29:09;;;;;;;13.52;12.13;;;;;;;8.41;nan;101316.88;5103420;28;20357;-61
2022/03/12 02:31:36;;;;;;;13.98;12.07;;;;;;;8.38;nan;101320.19;5092773;28;20376;-60
2022/03/12 02:34:02;;;;;;;16.05;12.07;;;;;;;8.40;nan;101312.53;5092814;28;20025;-60
2022/03/12 02:36:29;;;;;;;14.55;12.40;;;;;;;8.37;nan;101315.84;5092467;28;20023;-61
2022/03/12 02:38:55;;;;;;;15.40;12.13;;;;;;;8.37;nan;101318.44;5092833;28;20143;-61
2022/03/12 02:41:23;;;;;;;14.30;11.80;;;;;;;8.39;nan;101318.50;5092947;28;20082;-61
2022/03/12 02:43:48;;;;;;;14.20;11.57;;;;;;;8.40;nan;101326.31;5092410;28;20062;-61
2022/03/12 02:46:14;;;;;;;15.20;12.13;;;;;;;8.40;nan;101331.47;5092186;28;20335;-61
2022/03/12 02:48:40;;;;;;;15.82;11.63;;;;;;;8.38;nan;101327.94;5092493;28;20020;-60
2022/03/12 02:51:06;;;;;;;13.38;11.48;;;;;;;8.40;nan;101331.47;5092011;28;20483;-61
2022/03/12 02:53:32;;;;;;;14.07;12.00;;;;;;;8.41;nan;101333.28;5092138;28;20024;-61
2022/03/12 02:55:58;;;;;;;15.35;11.77;;;;;;;8.41;nan;101327.22;5092238;28;20042;-61
2022/03/12 02:58:23;;;;;;;16.52;12.27;;;;;;;8.39;nan;101334.88;5092114;28;20488;-61
2022/03/12 03:00:49;;;;;;;14.05;11.88;;;;;;;8.41;nan;101337.53;5091615;28;20020;-61
2022/03/12 03:03:15;;;;;;;12.73;11.38;;;;;;;8.40;nan;101341.81;5091587;28;20051;-61
2022/03/12 03:05:46;;;;;;;14.80;11.55;;;;;;;8.40;nan;101336.66;5092253;28;20027;-60
2022/03/12 03:08:20;;;;;;;15.27;11.88;;;;;;;8.39;nan;101350.38;5092326;28;20113;-61
2022/03/12 03:10:50;;;;;;;13.70;11.82;;;;;;;8.39;nan;101344.31;5091996;28;20042;-60
2022/03/12 03:13:18;;;;;;;13.65;11.85;;;;;;;8.35;nan;101340.72;5092294;28;20035;-60
2022/03/12 03:15:57;;;;;;;17.55;12.02;;;;;;;8.32;nan;101339.66;5091929;28;20487;-61
2022/03/12 03:18:24;;;;;;;15.80;12.38;;;;;;;8.29;nan;101337.84;5091938;28;20035;-61
2022/03/12 03:20:51;;;;;;;12.38;10.93;;;;;;;8.26;nan;101342.81;5091854;28;20112;-61
2022/03/12 03:23:17;;;;;;;12.57;10.88;;;;;;;8.21;nan;101352.94;5091546;28;20387;-61
2022/03/12 03:25:42;;;;;;;14.88;12.38;;;;;;;8.17;nan;101349.31;5092050;28;20081;-59
2022/03/12 03:28:08;;;;;;;13.93;12.52;;;;;;;8.15;nan;101353.50;5091783;28;20387;-61
2022/03/12 03:30:37;;;;;;;14.43;11.57;;;;;;;8.11;nan;101350.72;5091903;28;20051;-59
2022/03/12 03:33:10;;;;;;;13.90;12.48;;;;;;;8.06;nan;101355.63;5091430;28;20016;-61
2022/03/12 03:35:38;;;;;;;13.95;11.68;;;;;;;8.00;nan;101352.75;5091490;28;20032;-60
2022/03/12 03:38:04;;;;;;;13.52;11.55;;;;;;;7.98;nan;101356.94;5091506;28;20031;-61
2022/03/12 03:40:29;;;;;;;15.00;11.68;;;;;;;7.90;nan;101360.00;5091322;28;20066;-61
2022/03/12 03:42:54;;;;;;;13.65;12.00;;;;;;;7.84;nan;101370.03;5091057;28;20404;-60
2022/03/12 03:45:23;;;;;;;13.70;12.10;;;;;;;7.79;nan;101372.34;5091136;28;20031;-61
2022/03/12 03:47:50;;;;;;;13.30;10.95;;;;;;;7.75;nan;101370.44;5091124;28;20507;-60
2022/03/12 03:50:16;;;;;;;15.27;11.45;;;;;;;7.71;nan;101372.78;5091452;28;20442;-62
2022/03/12 03:52:41;;;;;;;13.35;11.82;;;;;;;7.69;nan;101376.16;5091198;28;20051;-61
2022/03/12 03:55:07;;;;;;;12.48;10.90;;;;;;;7.64;nan;101372.47;5090985;28;20392;-61
2022/03/12 03:57:32;;;;;;;12.77;10.95;;;;;;;7.65;nan;101378.47;5091049;28;20407;-61
2022/03/12 03:59:58;;;;;;;12.20;10.48;;;;;;;7.63;nan;101381.00;5090923;28;20043;-61
2022/03/12 04:02:23;;;;;;;11.98;10.68;;;;;;;7.60;nan;101378.25;5090844;28;20123;-61
2022/03/12 04:04:49;;;;;;;11.57;10.38;;;;;;;7.56;nan;101384.03;5090952;28;20100;-61
2022/03/12 04:07:15;;;;;;;13.13;11.45;;;;;;;7.54;nan;101386.53;5090921;28;20016;-61
2022/03/12 04:09:41;;;;;;;13.05;11.23;;;;;;;7.51;nan;101388.97;5090815;28;20027;-61
2022/03/12 04:12:07;;;;;;;15.98;11.52;;;;;;;7.49;nan;101393.16;5090575;28;20020;-61
2022/03/12 04:14:32;;;;;;;12.35;11.07;;;;;;;7.42;nan;101391.94;5091196;28;20093;-61
2022/03/12 04:16:58;;;;;;;14.07;11.52;;;;;;;7.37;nan;101392.50;5090751;28;20024;-61
2022/03/12 04:19:26;;;;;;;15.27;12.32;;;;;;;7.32;nan;101400.00;5090958;28;20020;-61
2022/03/12 04:21:56;;;;;;;15.43;11.48;;;;;;;7.28;nan;101398.03;5090473;28;20024;-61
2022/03/12 04:24:23;;;;;;;13.38;11.65;;;;;;;7.24;nan;101396.09;5090387;28;20028;-61
2022/03/12 04:26:50;;;;;;;12.63;11.32;;;;;;;7.18;nan;101405.25;5090513;28;20020;-60
2022/03/12 04:29:18;;;;;;;12.63;11.02;;;;;;;7.15;nan;101399.94;5090754;28;20480;-61
2022/03/12 04:31:44;;;;;;;16.80;11.65;;;;;;;7.10;nan;101398.81;5090612;28;20289;-61
2022/03/12 04:34:09;;;;;;;13.02;11.63;;;;;;;7.08;nan;101403.88;5090839;28;20599;-61
2022/03/12 04:36:36;;;;;;;12.73;11.18;;;;;;;7.05;nan;101405.41;5090587;28;20103;-61
2022/03/12 04:39:04;;;;;;;13.00;11.40;;;;;;;7.01;nan;101403.44;5090291;28;20023;-61
2022/03/12 04:41:35;;;;;;;11.60;10.35;;;;;;;6.97;nan;101398.13;5090410;28;20422;-61
2022/03/12 04:44:01;;;;;;;14.65;11.52;;;;;;;6.94;nan;101397.94;5090222;28;20102;-60
2022/03/12 04:46:27;;;;;;;11.88;10.52;;;;;;;6.91;nan;101402.94;5090064;28;20020;-61
2022/03/12 04:48:52;;;;;;;12.80;11.30;;;;;;;6.88;nan;101402.75;5090235;28;20058;-61
2022/03/12 04:51:17;;;;;;;13.02;11.38;;;;;;;6.83;nan;101402.53;5090212;28;20024;-60
2022/03/12 04:53:43;;;;;;;12.13;10.93;;;;;;;6.80;nan;101398.88;5089860;28;20474;-61
2022/03/12 04:56:09;;;;;;;13.73;11.95;;;;;;;6.77;nan;101409.88;5090194;28;20028;-61
2022/03/12 04:58:34;;;;;;;12.80;11.05;;;;;;;6.73;nan;101410.50;5090416;28;20024;-61
2022/03/12 05:01:00;;;;;;;12.82;11.43;;;;;;;6.70;nan;101416.38;5089825;28;20103;-60
2022/03/12 05:03:25;;;;;;;12.13;10.85;;;;;;;6.68;nan;101422.22;5090062;28;20069;-61
2022/03/12 05:05:53;;;;;;;12.60;11.13;;;;;;;6.64;nan;101423.75;5090090;28;20028;-61
2022/03/12 05:08:28;;;;;;;12.60;11.25;;;;;;;6.61;nan;101426.16;5090234;28;20028;-60
2022/03/12 05:10:55;;;;;;;15.10;11.20;;;;;;;6.57;nan;101424.19;5090334;28;20034;-61
2022/03/12 05:13:23;;;;;;;12.70;11.40;;;;;;;6.52;nan;101426.50;5089778;28;20038;-60
2022/03/12 05:15:52;;;;;;;12.82;11.52;;;;;;;6.51;nan;101426.41;5089999;28;20332;-61
2022/03/12 05:18:19;;;;;;;14.73;12.70;;;;;;;6.49;nan;101423.75;5090145;28;20024;-60
2022/03/12 05:20:46;;;;;;;14.00;11.50;;;;;;;6.45;nan;101427.84;5089504;28;20024;-62
2022/03/12 05:23:12;;;;;;;13.25;11.85;;;;;;;6.46;nan;101426.13;5089595;28;20028;-61
2022/03/12 05:25:40;;;;;;;12.32;10.95;;;;;;;6.41;nan;101433.59;5089154;28;20150;-61
2022/03/12 05:28:06;;;;;;;12.18;10.90;;;;;;;6.40;nan;101434.41;5089918;28;20236;-60
2022/03/12 05:30:32;;;;;;;12.80;11.48;;;;;;;6.40;nan;101438.66;5089616;28;20698;-61
2022/03/12 05:32:57;;;;;;;12.77;10.65;;;;;;;6.41;nan;101441.31;5089395;28;20020;-60
2022/03/12 05:35:23;;;;;;;12.18;10.85;;;;;;;6.42;nan;101444.81;5089429;28;20396;-61
2022/03/12 05:37:50;;;;;;;12.30;11.07;;;;;;;6.42;nan;101448.25;5089917;28;20077;-60
2022/03/12 05:40:18;;;;;;;12.60;11.02;;;;;;;6.40;nan;101447.28;5089278;28;20031;-61
2022/03/12 05:42:46;;;;;;;11.67;10.53;;;;;;;6.40;nan;101454.13;5089608;28;20452;-61
2022/03/12 05:45:12;;;;;;;13.50;11.10;;;;;;;6.40;nan;101457.59;5089356;28;20089;-60
2022/03/12 05:47:39;;;;;;;11.10;9.77;;;;;;;6.43;nan;101460.34;5089569;28;20369;-61
2022/03/12 05:50:09;;;;;;;12.60;10.40;;;;;;;6.44;nan;101456.09;5089473;28;20389;-60
2022/03/12 05:52:36;;;;;;;12.15;10.55;;;;;;;6.44;nan;101462.09;5087706;28;20406;-60
2022/03/12 05:55:04;;;;;;;12.23;10.97;;;;;;;6.42;nan;101458.53;5087288;28;20027;-61
2022/03/12 05:57:31;;;;;;;12.88;10.48;;;;;;;6.41;nan;101467.06;5086538;28;20637;-61
2022/03/12 05:59:57;;;;;;;12.15;10.52;;;;;;;6.42;nan;101466.25;5087114;28;20024;-61
2022/03/12 06:02:22;;;;;;;12.05;10.80;;;;;;;6.41;nan;101467.06;5088402;28;20067;-61
2022/03/12 06:04:48;;;;;;;12.63;10.30;;;;;;;6.38;nan;101472.06;5089522;28;20032;-60
2022/03/12 06:07:15;;;;;;;11.45;10.20;;;;;;;6.40;nan;101475.59;5071192;28;20062;-60
2022/03/12 06:09:40;;;;;;;12.35;9.73;;;;;;;6.38;nan;101463.44;5089539;28;20119;-59
2022/03/12 06:12:07;;;;;;;12.57;10.80;;;;;;;6.35;nan;101469.31;5089199;28;20410;-61
2022/03/12 06:14:38;;;;;;;12.23;10.93;;;;;;;6.34;nan;101465.81;5089114;28;20383;-61
2022/03/12 06:17:04;;;;;;;11.68;10.48;;;;;;;6.34;nan;101477.81;5088912;28;20028;-59
2022/03/12 06:19:30;;;;;;;12.13;9.93;;;;;;;6.31;nan;101475.06;5089616;28;20631;-61
2022/03/12 06:21:56;;;;;;;13.63;10.45;;;;;;;6.30;nan;101478.41;5089629;28;20020;-61
2022/03/12 06:24:22;;;;;;;12.50;11.30;;;;;;;6.30;nan;101483.56;5088848;28;20419;-60
2022/03/12 06:26:47;;;;;;;12.25;10.95;;;;;;;6.32;nan;101484.53;5089124;28;20028;-61
2022/03/12 06:29:13;;;;;;;12.68;10.82;;;;;;;6.33;nan;101494.06;5089047;28;20060;-61
2022/03/12 06:31:40;;;;;;;12.85;10.90;;;;;;;6.33;nan;101494.06;5088886;28;20411;-60
2022/03/12 06:34:06;;;;;;;12.57;11.27;;;;;;;6.33;nan;101489.78;5088898;28;20024;-61
2022/03/12 06:36:31;;;;;;;12.52;11.18;;;;;;;6.34;nan;101495.81;5089677;28;20024;-60
2022/03/12 06:38:57;;;;;;;12.93;10.68;;;;;;;6.33;nan;101489.78;5092392;28;20384;-61
2022/03/12 06:41:23;;;;;;;11.75;10.55;;;;;;;6.38;nan;101489.16;5092480;28;20032;-61
2022/03/12 06:43:50;;;;;;;12.27;10.50;;;;;;;6.40;nan;101490.16;5092669;28;20024;-60
2022/03/12 06:46:16;;;;;;;11.10;10.00;;;;;;;6.43;nan;101496.38;5092271;28;20052;-61
2022/03/12 06:48:42;;;;;;;13.60;10.60;;;;;;;6.47;nan;101495.78;5092442;28;20058;-61
2022/03/12 06:51:10;;;;;;;11.23;9.93;;;;;;;6.51;nan;101499.41;5092398;28;20388;-61
2022/03/12 06:53:36;;;;;;;14.30;11.18;;;;;;;6.53;nan;101504.66;5091837;28;20031;-61
2022/03/12 06:56:02;;;;;;;11.25;10.05;;;;;;;6.57;nan;101506.59;5092190;28;20024;-60
2022/03/12 06:58:28;;;;;;;12.68;11.30;;;;;;;6.59;nan;101510.16;5092083;28;20534;-60
2022/03/12 07:00:55;;;;;;;11.70;10.48;;;;;;;6.58;nan;101501.53;5092047;28;20020;-60
2022/03/12 07:03:20;;;;;;;12.25;10.05;;;;;;;6.64;nan;101519.03;5091826;28;20044;-61
2022/03/12 07:05:46;;;;;;;13.85;11.20;;;;;;;6.71;nan;101508.31;5092208;28;20018;-61
2022/03/12 07:08:11;;;;;;;12.77;10.23;;;;;;;6.78;nan;101513.84;5092140;28;20028;-61
2022/03/12 07:10:36;;;;;;;10.20;9.13;;;;;;;6.86;nan;101517.72;5091858;28;20024;-61
2022/03/12 07:13:02;;;;;;;11.35;9.90;;;;;;;6.92;nan;101517.19;5092101;28;20027;-61
2022/03/12 07:15:27;;;;;;;10.60;9.50;;;;;;;6.96;nan;101525.19;5091780;28;20024;-61
2022/03/12 07:17:54;;;;;;;10.75;9.68;;;;;;;7.00;nan;101525.38;5091793;28;20032;-61
2022/03/12 07:20:20;;;;;;;10.73;9.63;;;;;;;7.06;nan;101525.72;5092015;28;20095;-61
2022/03/12 07:22:46;;;;;;;10.80;9.43;;;;;;;7.13;nan;101529.53;5091634;28;20103;-61
2022/03/12 07:25:12;;;;;;;10.30;9.30;;;;;;;7.20;nan;101531.66;5091565;28;20490;-60
2022/03/12 07:27:39;;;;;;;12.38;9.95;;;;;;;7.28;nan;101532.09;5091846;28;20391;-61
2022/03/12 07:30:05;;;;;;;11.77;9.95;;;;;;;7.37;nan;101542.06;5091502;28;20523;-61
2022/03/12 07:32:31;;;;;;;9.07;8.10;;;;;;;7.49;nan;101545.31;5091534;28;20063;-61
2022/03/12 07:34:57;;;;;;;9.50;8.60;;;;;;;7.54;nan;101541.31;5091904;28;20023;-61
2022/03/12 07:37:22;;;;;;;9.68;8.75;;;;;;;7.68;nan;101549.81;5091565;28;20028;-61
2022/03/12 07:39:48;;;;;;;9.30;8.43;;;;;;;7.80;nan;101548.72;5091486;28;20036;-60
2022/03/12 07:42:14;;;;;;;9.70;8.20;;;;;;;7.86;nan;101556.78;5091261;28;20043;-58
2022/03/12 07:44:40;;;;;;;9.65;8.60;;;;;;;7.92;nan;101557.13;5091354;28;20031;-61
2022/03/12 07:47:06;;;;;;;8.68;7.75;;;;;;;8.24;nan;101557.06;5090911;28;20020;-60
2022/03/12 07:49:32;;;;;;;10.82;8.75;;;;;;;8.70;nan;101568.09;5091077;28;20031;-61
2022/03/12 07:51:57;;;;;;;9.15;8.18;;;;;;;9.14;nan;101559.88;5091233;28;20024;-61
2022/03/12 07:54:23;;;;;;;9.93;8.32;;;;;;;9.46;nan;101564.88;5091033;28;20028;-61
2022/03/12 07:56:49;;;;;;;10.60;7.80;;;;;;;9.73;nan;101564.44;5091461;28;20496;-59
2022/03/12 07:59:15;;;;;;;8.68;7.90;;;;;;;9.97;nan;101567.25;5091087;28;20483;-60
2022/03/12 08:01:40;;;;;;;8.02;7.22;;;;;;;10.26;nan;101558.16;5091553;27;20054;-61
2022/03/12 08:04:06;;;;;;;8.60;7.60;;;;;;;10.38;nan;101568.19;5090983;28;20069;-61
2022/03/12 08:06:33;;;;;;;8.40;7.50;;;;;;;10.53;nan;101575.78;5091058;28;20032;-61
2022/03/12 08:08:58;;;;;;;7.47;6.78;;;;;;;10.61;nan;101571.84;5090809;28;20030;-61
2022/03/12 08:11:25;;;;;;;8.23;7.50;;;;;;;10.84;nan;101584.91;5090755;28;20028;-60
2022/03/12 08:13:51;;;;;;;7.28;6.50;;;;;;;10.78;nan;101582.91;5090704;28;20032;-60
2022/03/12 08:16:16;;;;;;;7.72;6.95;;;;;;;10.82;nan;101576.16;5090919;28;20447;-61
2022/03/12 08:18:43;;;;;;;7.18;6.32;;;;;;;10.72;nan;101585.22;5090781;28;20111;-61
2022/03/12 08:21:10;;;;;;;9.02;7.32;;;;;;;10.57;nan;101586.34;5090692;28;20484;-61
2022/03/12 08:23:36;;;;;;;8.27;6.32;;;;;;;10.76;nan;101584.56;5090443;28;20028;-61
2022/03/12 08:26:02;;;;;;;7.03;5.93;;;;;;;10.93;nan;101587.00;5090382;28;20047;-61
2022/03/12 08:28:28;;;;;;;8.52;6.40;;;;;;;11.16;nan;101592.25;5090278;28;20343;-61
2022/03/12 08:30:53;;;;;;;6.78;5.88;;;;;;;11.48;nan;101590.09;5090493;28;20075;-61
2022/03/12 08:33:20;;;;;;;6.07;5.47;;;;;;;11.83;nan;101600.13;5090308;28;20020;-61
2022/03/12 08:35:48;;;;;;;6.80;6.20;;;;;;;12.12;nan;101599.50;5090553;28;20043;-61
2022/03/12 08:38:14;;;;;;;6.70;5.70;;;;;;;12.11;nan;101600.31;5090171;28;20111;-61
2022/03/12 08:40:39;;;;;;;7.30;5.35;;;;;;;12.16;nan;101606.56;5089958;28;20099;-61
2022/03/12 08:43:04;;;;;;;6.00;5.40;;;;;;;12.25;nan;101601.72;5089936;28;20051;-61
2022/03/12 08:45:32;;;;;;;6.25;5.65;;;;;;;12.51;nan;101602.59;5090260;28;20024;-61
2022/03/12 08:47:57;;;;;;;6.35;5.30;;;;;;;12.65;nan;101610.91;5090111;28;20472;-61
2022/03/12 08:50:24;;;;;;;6.70;6.10;;;;;;;12.81;nan;101612.31;5090562;28;20028;-61
2022/03/12 08:52:50;;;;;;;7.05;5.65;;;;;;;12.78;nan;101607.03;5090369;28;20035;-61
2022/03/12 08:55:15;;;;;;;7.95;5.30;;;;;;;12.74;nan;101611.22;5089807;28;20206;-61
2022/03/12 08:57:41;;;;;;;6.28;5.68;;;;;;;12.51;nan;101605.22;5089799;28;20027;-61
2022/03/12 09:00:09;;;;;;;5.80;4.78;;;;;;;12.53;nan;101616.56;5089254;28;20031;-61
2022/03/12 09:02:36;;;;;;;7.13;5.15;;;;;;;12.29;nan;101622.59;5089739;28;20150;-61
2022/03/12 09:05:05;;;;;;;6.68;4.93;;;;;;;12.16;nan;101609.16;5089922;28;20032;-61
2022/03/12 09:07:32;;;;;;;7.90;5.30;;;;;;;11.97;nan;101621.41;5089806;28;20038;-61
2022/03/12 09:09:58;;;;;;;6.18;5.30;;;;;;;12.00;nan;101613.75;5089779;28;20107;-61
2022/03/12 09:12:23;;;;;;;7.47;4.88;;;;;;;11.95;nan;101614.38;5089662;28;20099;-62
2022/03/12 09:14:49;;;;;;;6.03;5.40;;;;;;;11.92;nan;101617.75;5089765;28;20028;-61
2022/03/12 09:17:14;;;;;;;5.80;4.68;;;;;;;11.95;nan;101628.25;5089745;28;20034;-60
2022/03/12 09:19:40;;;;;;;7.00;5.07;;;;;;;12.04;nan;101632.03;5089842;28;20103;-61
2022/03/12 09:22:05;;;;;;;6.25;4.03;;;;;;;12.04;nan;101624.25;5089895;28;20050;-61
2022/03/12 09:24:31;;;;;;;6.55;4.22;;;;;;;12.05;nan;101633.81;5089464;28;20499;-61
2022/03/12 09:26:57;;;;;;;5.10;3.83;;;;;;;11.93;nan;101627.31;5089869;28;20519;-61
2022/03/12 09:29:22;;;;;;;6.15;4.03;;;;;;;11.87;nan;101637.47;5089858;28;20486;-61
2022/03/12 09:31:48;;;;;;;6.40;3.45;;;;;;;11.79;nan;101625.88;5089725;28;20028;-61
2022/03/12 09:34:14;;;;;;;4.75;3.67;;;;;;;11.75;nan;101633.56;5089659;28;20035;-61
2022/03/12 09:36:40;;;;;;;5.03;3.40;;;;;;;11.76;nan;101629.25;5089418;28;20028;-61
2022/03/12 09:39:06;;;;;;;6.80;3.65;;;;;;;11.68;nan;101628.94;5089352;28;20077;-60
2022/03/12 09:41:38;;;;;;;6.25;3.15;;;;;;;11.81;nan;101632.91;5089622;28;20028;-61
2022/03/12 09:44:07;;;;;;;5.82;3.08;;;;;;;11.84;nan;101633.03;5089555;28;20051;-61
2022/03/12 09:46:32;;;;;;;5.95;3.40;;;;;;;11.85;nan;101620.94;5089359;28;20055;-61
2022/03/12 09:48:58;;;;;;;8.63;3.03;;;;;;;11.98;nan;101627.50;5089227;28;20059;-61
2022/03/12 09:51:28;;;;;;;8.45;3.35;;;;;;;12.06;nan;101618.28;5089742;28;20024;-61
2022/03/12 09:53:54;;;;;;;7.15;3.25;;;;;;;12.02;nan;101613.78;5089459;28;20073;-61
2022/03/12 09:56:19;;;;;;;6.07;3.10;;;;;;;12.17;nan;101617.84;5089368;28;20028;-61
2022/03/12 09:58:44;;;;;;;4.93;2.58;;;;;;;12.29;nan;101615.69;5089632;28;20395;-61
2022/03/12 10:01:10;;;;;;;5.25;2.90;;;;;;;12.33;nan;101616.69;5089293;28;20354;-61
2022/03/12 10:03:37;;;;;;;5.30;2.40;;;;;;;12.34;nan;101627.16;5089425;28;20024;-60
2022/03/12 10:06:03;;;;;;;7.45;2.70;;;;;;;12.34;nan;101632.34;5089230;28;20042;-61
2022/03/12 10:08:28;;;;;;;6.57;2.50;;;;;;;12.24;nan;101636.34;5089184;28;20047;-61
2022/03/12 10:10:54;;;;;;;9.52;3.30;;;;;;;12.20;nan;101637.03;5090906;28;20035;-60
2022/03/12 10:13:20;;;;;;;4.50;2.47;;;;;;;12.17;nan;101641.22;5093381;28;20047;-60
2022/03/12 10:15:45;;;;;;;8.48;2.40;;;;;;;12.21;nan;101640.53;5093192;28;20491;-62
2022/03/12 10:18:11;;;;;;;9.52;2.72;;;;;;;12.29;nan;101644.28;5092819;28;20104;-62
2022/03/12 10:20:39;;;;;;;4.60;2.28;;;;;;;12.24;nan;101643.22;5092758;28;20107;-61
2022/03/12 10:23:05;;;;;;;8.60;2.80;;;;;;;12.27;nan;101642.47;5092623;28;20055;-62
2022/03/12 10:25:30;;;;;;;6.22;2.60;;;;;;;12.36;nan;101648.00;5092799;28;20048;-62
2022/03/12 10:27:55;;;;;;;4.88;2.40;;;;;;;12.45;nan;101650.94;5092842;28;20411;-61
2022/03/12 10:30:22;;;;;;;5.57;2.78;;;;;;;12.48;nan;101639.78;5092691;28;20481;-61
2022/03/12 10:32:49;;;;;;;5.80;3.05;;;;;;;12.38;nan;101643.75;5092710;28;20020;-61
2022/03/12 10:35:18;;;;;;;4.75;2.35;;;;;;;12.22;nan;101642.28;5092798;28;20024;-61
2022/03/12 10:37:45;;;;;;;4.13;2.40;;;;;;;12.12;nan;101635.88;5092968;28;20028;-61
2022/03/12 10:40:17;;;;;;;6.00;2.30;;;;;;;12.11;nan;101641.88;5092488;28;20055;-61
2022/03/12 10:43:00;;;;;;;4.10;2.58;;;;;;;12.05;nan;101641.63;5092518;28;20073;-61
2022/03/12 10:45:28;;;;;;;6.13;2.20;;;;;;;12.13;nan;101648.91;5092407;28;20077;-61
2022/03/12 10:47:56;;;;;;;10.07;2.67;;;;;;;12.11;nan;101649.66;5092013;28;20567;-61
2022/03/12 10:50:25;;;;;;;6.90;2.70;;;;;;;12.13;nan;101648.00;5092289;28;20028;-62
2022/03/12 10:52:55;;;;;;;4.57;2.05;;;;;;;12.19;nan;101636.97;5092083;28;20020;-61
2022/03/12 10:55:25;;;;;;;5.95;2.20;;;;;;;12.37;nan;101644.59;5092457;28;20436;-60
2022/03/12 10:58:01;;;;;;;5.55;2.33;;;;;;;12.59;nan;101632.38;5091973;28;20024;-60
2022/03/12 11:00:29;;;;;;;8.77;2.35;;;;;;;12.84;nan;101638.47;5091963;28;20027;-62
2022/03/12 11:02:57;;;;;;;5.20;2.15;;;;;;;12.97;nan;101640.66;5091918;28;20040;-61
2022/03/12 11:05:28;;;;;;;5.45;2.28;;;;;;;12.95;nan;101637.09;5092264;28;20403;-61
2022/03/12 11:08:06;;;;;;;5.03;2.13;;;;;;;12.86;nan;101642.00;5091779;28;20032;-62
2022/03/12 11:10:33;;;;;;;6.18;2.42;;;;;;;12.83;nan;101647.06;5091458;28;20028;-61
2022/03/12 11:12:59;;;;;;;4.90;2.40;;;;;;;12.70;nan;101654.44;5091583;28;20070;-62
2022/03/12 11:15:24;;;;;;;4.65;2.17;;;;;;;12.83;nan;101647.97;5091748;28;20484;-61
2022/03/12 11:17:51;;;;;;;7.03;1.95;;;;;;;12.99;nan;101647.66;5091609;28;20051;-61
2022/03/12 11:20:18;;;;;;;4.70;1.90;;;;;;;13.17;nan;101648.25;5091884;28;20066;-61
2022/03/12 11:23:04;;;;;;;6.05;2.50;;;;;;;13.21;nan;101644.94;5090623;28;20032;-61
2022/03/12 11:25:30;;;;;;;4.65;2.00;;;;;;;13.25;nan;101652.84;5091445;28;20035;-61
2022/03/12 11:28:00;;;;;;;3.92;1.27;;;;;;;13.37;nan;101653.25;5091372;28;20027;-61
2022/03/12 11:30:30;;;;;;;5.90;1.70;;;;;;;13.37;nan;101640.25;5091303;28;20024;-62
2022/03/12 11:33:07;;;;;;;4.25;1.63;;;;;;;13.43;nan;101649.97;5091678;28;20372;-61